Gallup Municipal Airport
KGUP : now visible

Airfield :











YOU CAN JOIN US ON...

 
LOGIN :

Register | Disclaimer

   EN    FR    IT 

 









Legend :    VFR   Marginal VFR   IFR   Intensive IFR   Very Intensive IFR
Visi :
Ceiling :
>= 8 km
>= 3000ft
5 to 8 km
1000 to 3000 ft
1500m to 5 km
500 to 1000 ft
800 to 1500m
200 to 500 ft
< 800m
< 200 ft
Symbols :   Thunderstorms  Fog  Heavy snow  Heavy precipitations  Wind > 20 kt






- Airport Elevation : 6472 ft
- IATA code : GUP


KGUP - Gallup Municipal

CURRENT METAR :
  • 212253Z AUTO 29010G20KT 10SM CLR 24/M08 A3015 RMK AO2 SLP118 T02391078

EXPIRED METARs :
  • 212153Z AUTO 10SM FEW120 24/M07 A3017 RMK AO2 SLP120 T02391072
  • 212053Z AUTO 29011G16KT 230V320 10SM BKN120 23/M07 A3019 RMK AO2 SLP138 T02281072 56023
  • 211953Z AUTO 31009KT 10SM CLR 22/M07 A3022 RMK AO2 SLP137 T02221067
  • 211853Z AUTO 25009KT 200V290 10SM CLR 22/M05 A3024 RMK AO2 SLP147 T02221050

TAF KGUP
Valid from the 21 at 18:00 until the 22 at 18:00 UTC


211726Z 2118/2218 VRB03KT P6SM SKC
FM211900 30010KT P6SM FEW110
FM220200 VRB03KT P6SM SKC
FM221600 24010KT P6SM SKC
KZAB FIR / North America



MET'MAP, your aeronautical weather chart ! - Copyright ORBIFLY December 2007 - Disclaimer

ORBIFLY MET'MAP TEAM :

Programming & Development : Alexandra Zaïnal
Original concept : Baudouin d'Aumeries
Technical & hardware support : Manuel Goepfert
Assistance : Marc-Olivier Méhu




SOURCES & CREDITS :

   NOAA       Earth
Advisory